sensor_id;sensor_type;location;lat;lon;timestamp;temperature;humidity
17565;DHT22;62994;52.126;5.596;2023-03-31T00:00:50;12.10;99.90
17565;DHT22;62994;52.126;5.596;2023-03-31T00:03:19;12.10;99.90
17565;DHT22;62994;52.126;5.596;2023-03-31T00:05:48;12.10;99.90
17565;DHT22;62994;52.126;5.596;2023-03-31T00:08:18;12.10;99.90
17565;DHT22;62994;52.126;5.596;2023-03-31T00:10:46;12.10;99.90
17565;DHT22;62994;52.126;5.596;2023-03-31T00:13:14;12.00;99.90
17565;DHT22;62994;52.126;5.596;2023-03-31T00:15:41;12.10;99.90
17565;DHT22;62994;52.126;5.596;2023-03-31T00:18:10;12.10;99.90
17565;DHT22;62994;52.126;5.596;2023-03-31T00:20:39;12.10;99.90
17565;DHT22;62994;52.126;5.596;2023-03-31T00:23:10;12.10;99.90
17565;DHT22;62994;52.126;5.596;2023-03-31T00:25:39;12.10;99.90
17565;DHT22;62994;52.126;5.596;2023-03-31T00:28:07;12.10;99.90
17565;DHT22;62994;52.126;5.596;2023-03-31T00:30:34;12.10;99.90
17565;DHT22;62994;52.126;5.596;2023-03-31T00:33:01;12.10;99.90
17565;DHT22;62994;52.126;5.596;2023-03-31T00:35:29;12.10;99.90
17565;DHT22;62994;52.126;5.596;2023-03-31T00:37:58;12.10;99.90
17565;DHT22;62994;52.126;5.596;2023-03-31T00:40:25;12.10;99.90
17565;DHT22;62994;52.126;5.596;2023-03-31T00:42:53;12.10;99.90
17565;DHT22;62994;52.126;5.596;2023-03-31T00:45:23;12.10;99.90
17565;DHT22;62994;52.126;5.596;2023-03-31T00:47:54;12.10;99.90
17565;DHT22;62994;52.126;5.596;2023-03-31T00:50:26;12.10;99.90
17565;DHT22;62994;52.126;5.596;2023-03-31T00:52:59;12.10;99.90
17565;DHT22;62994;52.126;5.596;2023-03-31T00:55:31;12.00;99.90
17565;DHT22;62994;52.126;5.596;2023-03-31T00:58:00;12.00;99.90
17565;DHT22;62994;52.126;5.596;2023-03-31T01:00:30;12.00;99.90
17565;DHT22;62994;52.126;5.596;2023-03-31T01:03:00;12.00;99.90
17565;DHT22;62994;52.126;5.596;2023-03-31T01:05:33;12.00;99.90
17565;DHT22;62994;52.126;5.596;2023-03-31T01:08:08;12.00;99.90
17565;DHT22;62994;52.126;5.596;2023-03-31T01:10:39;12.00;99.90
17565;DHT22;62994;52.126;5.596;2023-03-31T01:13:08;12.00;99.90
17565;DHT22;62994;52.126;5.596;2023-03-31T01:15:37;12.00;99.90
17565;DHT22;62994;52.126;5.596;2023-03-31T01:18:08;12.00;99.90
17565;DHT22;62994;52.126;5.596;2023-03-31T01:20:47;12.00;99.90
17565;DHT22;62994;52.126;5.596;2023-03-31T01:23:47;11.90;99.90
17565;DHT22;62994;52.126;5.596;2023-03-31T01:26:39;11.90;99.90
17565;DHT22;62994;52.126;5.596;2023-03-31T01:32:36;11.90;99.90
17565;DHT22;62994;52.126;5.596;2023-03-31T01:35:29;11.90;99.90
17565;DHT22;62994;52.126;5.596;2023-03-31T01:41:20;11.90;99.90
17565;DHT22;62994;52.126;5.596;2023-03-31T01:43:55;11.90;99.90
17565;DHT22;62994;52.126;5.596;2023-03-31T01:46:28;11.90;99.90
17565;DHT22;62994;52.126;5.596;2023-03-31T01:49:01;11.90;99.90
17565;DHT22;62994;52.126;5.596;2023-03-31T01:51:38;11.90;99.90
17565;DHT22;62994;52.126;5.596;2023-03-31T01:54:16;12.00;99.90
17565;DHT22;62994;52.126;5.596;2023-03-31T01:56:49;12.00;99.90
17565;DHT22;62994;52.126;5.596;2023-03-31T01:59:24;12.00;99.90
17565;DHT22;62994;52.126;5.596;2023-03-31T02:01:56;12.00;99.90
17565;DHT22;62994;52.126;5.596;2023-03-31T02:04:29;12.00;99.90
17565;DHT22;62994;52.126;5.596;2023-03-31T02:07:02;12.00;99.90
17565;DHT22;62994;52.126;5.596;2023-03-31T02:09:34;12.00;99.90
17565;DHT22;62994;52.126;5.596;2023-03-31T02:12:09;12.00;99.90
17565;DHT22;62994;52.126;5.596;2023-03-31T02:14:39;12.00;99.90
17565;DHT22;62994;52.126;5.596;2023-03-31T02:17:17;12.00;99.90
17565;DHT22;62994;52.126;5.596;2023-03-31T02:19:48;12.00;99.90
17565;DHT22;62994;52.126;5.596;2023-03-31T02:22:17;12.00;99.90
17565;DHT22;62994;52.126;5.596;2023-03-31T02:24:48;12.00;99.90
17565;DHT22;62994;52.126;5.596;2023-03-31T02:27:20;12.00;99.90
17565;DHT22;62994;52.126;5.596;2023-03-31T02:29:49;11.90;99.90
17565;DHT22;62994;52.126;5.596;2023-03-31T02:32:20;11.90;99.90
17565;DHT22;62994;52.126;5.596;2023-03-31T02:34:48;12.00;99.90
17565;DHT22;62994;52.126;5.596;2023-03-31T02:37:16;12.10;99.90
17565;DHT22;62994;52.126;5.596;2023-03-31T02:39:45;12.10;99.90
17565;DHT22;62994;52.126;5.596;2023-03-31T02:42:14;12.20;99.90
17565;DHT22;62994;52.126;5.596;2023-03-31T02:44:43;12.10;99.90
17565;DHT22;62994;52.126;5.596;2023-03-31T02:47:12;12.20;99.90
17565;DHT22;62994;52.126;5.596;2023-03-31T02:49:43;12.10;99.90
17565;DHT22;62994;52.126;5.596;2023-03-31T02:52:32;12.10;99.90
17565;DHT22;62994;52.126;5.596;2023-03-31T02:55:14;12.10;99.90
17565;DHT22;62994;52.126;5.596;2023-03-31T02:58:08;12.00;99.90
17565;DHT22;62994;52.126;5.596;2023-03-31T03:00:58;12.00;99.90
17565;DHT22;62994;52.126;5.596;2023-03-31T03:03:37;12.00;99.90
17565;DHT22;62994;52.126;5.596;2023-03-31T03:06:23;12.00;99.90
17565;DHT22;62994;52.126;5.596;2023-03-31T03:09:04;12.00;99.90
17565;DHT22;62994;52.126;5.596;2023-03-31T03:11:43;12.00;99.90
17565;DHT22;62994;52.126;5.596;2023-03-31T03:14:18;11.90;99.90
17565;DHT22;62994;52.126;5.596;2023-03-31T03:16:53;11.90;99.90
17565;DHT22;62994;52.126;5.596;2023-03-31T03:19:24;11.90;99.90
17565;DHT22;62994;52.126;5.596;2023-03-31T03:21:52;11.90;99.90
17565;DHT22;62994;52.126;5.596;2023-03-31T03:24:20;12.00;99.90
17565;DHT22;62994;52.126;5.596;2023-03-31T03:26:47;12.00;99.90
17565;DHT22;62994;52.126;5.596;2023-03-31T03:29:15;12.00;99.90
17565;DHT22;62994;52.126;5.596;2023-03-31T03:31:42;12.00;99.90
17565;DHT22;62994;52.126;5.596;2023-03-31T03:34:11;12.00;99.90
17565;DHT22;62994;52.126;5.596;2023-03-31T03:36:39;12.00;99.90
17565;DHT22;62994;52.126;5.596;2023-03-31T03:39:11;12.00;99.90
17565;DHT22;62994;52.126;5.596;2023-03-31T03:41:38;12.00;99.90
17565;DHT22;62994;52.126;5.596;2023-03-31T03:44:05;12.00;99.90
17565;DHT22;62994;52.126;5.596;2023-03-31T03:46:33;11.90;99.90
17565;DHT22;62994;52.126;5.596;2023-03-31T03:49:00;11.90;99.90
17565;DHT22;62994;52.126;5.596;2023-03-31T03:51:29;11.90;99.90
17565;DHT22;62994;52.126;5.596;2023-03-31T03:53:56;11.90;99.90
17565;DHT22;62994;52.126;5.596;2023-03-31T03:56:24;11.90;99.90
17565;DHT22;62994;52.126;5.596;2023-03-31T03:58:52;11.90;99.90
17565;DHT22;62994;52.126;5.596;2023-03-31T04:01:19;11.90;99.90
17565;DHT22;62994;52.126;5.596;2023-03-31T04:03:47;12.00;99.90
17565;DHT22;62994;52.126;5.596;2023-03-31T04:06:14;12.00;99.90
17565;DHT22;62994;52.126;5.596;2023-03-31T04:08:43;12.00;99.90
17565;DHT22;62994;52.126;5.596;2023-03-31T04:11:13;12.00;99.90
17565;DHT22;62994;52.126;5.596;2023-03-31T04:13:44;11.90;99.90
17565;DHT22;62994;52.126;5.596;2023-03-31T04:16:11;11.90;99.90
17565;DHT22;62994;52.126;5.596;2023-03-31T04:18:42;11.80;99.90
17565;DHT22;62994;52.126;5.596;2023-03-31T04:21:14;11.80;99.90
17565;DHT22;62994;52.126;5.596;2023-03-31T04:23:50;11.80;99.90
17565;DHT22;62994;52.126;5.596;2023-03-31T04:26:25;11.90;99.90
17565;DHT22;62994;52.126;5.596;2023-03-31T04:28:56;11.90;99.90
17565;DHT22;62994;52.126;5.596;2023-03-31T04:31:29;11.80;99.90
17565;DHT22;62994;52.126;5.596;2023-03-31T04:33:56;11.80;99.90
17565;DHT22;62994;52.126;5.596;2023-03-31T04:36:27;11.80;99.90
17565;DHT22;62994;52.126;5.596;2023-03-31T04:38:58;11.80;99.90
17565;DHT22;62994;52.126;5.596;2023-03-31T04:41:26;11.80;99.90
17565;DHT22;62994;52.126;5.596;2023-03-31T04:43:55;11.70;99.90
17565;DHT22;62994;52.126;5.596;2023-03-31T04:46:22;11.70;99.90
17565;DHT22;62994;52.126;5.596;2023-03-31T04:48:50;11.80;99.90
17565;DHT22;62994;52.126;5.596;2023-03-31T04:51:20;11.80;99.90
17565;DHT22;62994;52.126;5.596;2023-03-31T04:53:48;11.80;99.90
17565;DHT22;62994;52.126;5.596;2023-03-31T04:56:17;11.80;99.90
17565;DHT22;62994;52.126;5.596;2023-03-31T04:58:44;11.80;99.90
17565;DHT22;62994;52.126;5.596;2023-03-31T05:01:11;11.80;99.90
17565;DHT22;62994;52.126;5.596;2023-03-31T05:03:42;11.70;99.90
17565;DHT22;62994;52.126;5.596;2023-03-31T05:06:10;11.60;99.90
17565;DHT22;62994;52.126;5.596;2023-03-31T05:08:38;11.70;99.90
17565;DHT22;62994;52.126;5.596;2023-03-31T05:11:05;11.70;99.90
17565;DHT22;62994;52.126;5.596;2023-03-31T05:13:34;11.60;99.90
17565;DHT22;62994;52.126;5.596;2023-03-31T05:16:06;11.70;99.90
17565;DHT22;62994;52.126;5.596;2023-03-31T05:18:34;11.70;99.90
17565;DHT22;62994;52.126;5.596;2023-03-31T05:21:09;11.60;99.90
17565;DHT22;62994;52.126;5.596;2023-03-31T05:23:37;11.60;99.90
17565;DHT22;62994;52.126;5.596;2023-03-31T05:26:04;11.60;99.90
17565;DHT22;62994;52.126;5.596;2023-03-31T05:28:35;11.70;99.90
17565;DHT22;62994;52.126;5.596;2023-03-31T05:31:04;11.70;99.90
17565;DHT22;62994;52.126;5.596;2023-03-31T05:33:32;11.90;99.90
17565;DHT22;62994;52.126;5.596;2023-03-31T05:36:02;11.80;99.90
17565;DHT22;62994;52.126;5.596;2023-03-31T05:38:35;11.80;99.90
17565;DHT22;62994;52.126;5.596;2023-03-31T05:41:03;11.80;99.90
17565;DHT22;62994;52.126;5.596;2023-03-31T05:43:33;11.80;99.90
17565;DHT22;62994;52.126;5.596;2023-03-31T05:46:02;11.80;99.90
17565;DHT22;62994;52.126;5.596;2023-03-31T05:48:31;11.80;99.90
17565;DHT22;62994;52.126;5.596;2023-03-31T05:50:59;11.80;99.90
17565;DHT22;62994;52.126;5.596;2023-03-31T05:53:27;11.70;99.90
17565;DHT22;62994;52.126;5.596;2023-03-31T05:56:02;11.70;99.90
17565;DHT22;62994;52.126;5.596;2023-03-31T05:58:32;11.70;99.90
17565;DHT22;62994;52.126;5.596;2023-03-31T06:01:04;11.70;99.90
17565;DHT22;62994;52.126;5.596;2023-03-31T06:03:32;11.70;99.90
17565;DHT22;62994;52.126;5.596;2023-03-31T06:05:59;11.70;99.90
17565;DHT22;62994;52.126;5.596;2023-03-31T06:08:32;11.70;99.90
17565;DHT22;62994;52.126;5.596;2023-03-31T06:11:02;11.70;99.90
17565;DHT22;62994;52.126;5.596;2023-03-31T06:13:30;11.70;99.90
17565;DHT22;62994;52.126;5.596;2023-03-31T06:15:59;11.60;99.90
17565;DHT22;62994;52.126;5.596;2023-03-31T06:18:30;11.70;99.90
17565;DHT22;62994;52.126;5.596;2023-03-31T06:20:58;11.70;99.90
17565;DHT22;62994;52.126;5.596;2023-03-31T06:23:26;11.70;99.90
17565;DHT22;62994;52.126;5.596;2023-03-31T06:26:00;11.70;99.90
17565;DHT22;62994;52.126;5.596;2023-03-31T06:28:29;11.70;99.90
17565;DHT22;62994;52.126;5.596;2023-03-31T06:31:14;11.70;99.90
17565;DHT22;62994;52.126;5.596;2023-03-31T06:33:44;11.70;99.90
17565;DHT22;62994;52.126;5.596;2023-03-31T06:36:18;11.70;99.90
17565;DHT22;62994;52.126;5.596;2023-03-31T06:38:47;11.70;99.90
17565;DHT22;62994;52.126;5.596;2023-03-31T06:41:16;11.70;99.90
17565;DHT22;62994;52.126;5.596;2023-03-31T06:43:45;11.70;99.90
17565;DHT22;62994;52.126;5.596;2023-03-31T06:46:13;11.70;99.90
17565;DHT22;62994;52.126;5.596;2023-03-31T06:48:43;11.80;99.90
17565;DHT22;62994;52.126;5.596;2023-03-31T06:51:16;11.80;99.90
17565;DHT22;62994;52.126;5.596;2023-03-31T06:53:44;11.70;99.90
17565;DHT22;62994;52.126;5.596;2023-03-31T06:56:14;11.70;99.90
17565;DHT22;62994;52.126;5.596;2023-03-31T06:58:42;11.90;99.90
17565;DHT22;62994;52.126;5.596;2023-03-31T07:01:10;11.90;99.90
17565;DHT22;62994;52.126;5.596;2023-03-31T07:03:37;12.00;99.90
17565;DHT22;62994;52.126;5.596;2023-03-31T07:06:05;12.00;99.90
17565;DHT22;62994;52.126;5.596;2023-03-31T07:08:35;12.00;99.90
17565;DHT22;62994;52.126;5.596;2023-03-31T07:11:02;12.00;99.90
17565;DHT22;62994;52.126;5.596;2023-03-31T07:13:29;11.90;99.90
17565;DHT22;62994;52.126;5.596;2023-03-31T07:15:57;12.00;99.90
17565;DHT22;62994;52.126;5.596;2023-03-31T07:18:24;11.90;99.90
17565;DHT22;62994;52.126;5.596;2023-03-31T07:21:02;11.90;99.90
17565;DHT22;62994;52.126;5.596;2023-03-31T07:23:30;11.90;99.90
17565;DHT22;62994;52.126;5.596;2023-03-31T07:25:59;11.90;99.90
17565;DHT22;62994;52.126;5.596;2023-03-31T07:28:27;11.90;99.90
17565;DHT22;62994;52.126;5.596;2023-03-31T07:30:55;11.90;99.90
17565;DHT22;62994;52.126;5.596;2023-03-31T07:33:23;11.90;99.90
17565;DHT22;62994;52.126;5.596;2023-03-31T07:35:50;11.90;99.90
17565;DHT22;62994;52.126;5.596;2023-03-31T07:38:18;11.90;99.90
17565;DHT22;62994;52.126;5.596;2023-03-31T07:40:45;11.90;99.90
17565;DHT22;62994;52.126;5.596;2023-03-31T07:43:14;11.90;99.90
17565;DHT22;62994;52.126;5.596;2023-03-31T07:45:42;11.90;99.90
17565;DHT22;62994;52.126;5.596;2023-03-31T07:48:09;11.90;99.90
17565;DHT22;62994;52.126;5.596;2023-03-31T07:50:37;11.90;99.90
17565;DHT22;62994;52.126;5.596;2023-03-31T07:53:04;11.90;99.90
17565;DHT22;62994;52.126;5.596;2023-03-31T07:55:33;11.90;99.90
17565;DHT22;62994;52.126;5.596;2023-03-31T07:58:00;11.90;99.90
17565;DHT22;62994;52.126;5.596;2023-03-31T08:00:33;12.00;99.90
17565;DHT22;62994;52.126;5.596;2023-03-31T08:03:01;12.00;99.90
17565;DHT22;62994;52.126;5.596;2023-03-31T08:05:28;12.00;99.90
17565;DHT22;62994;52.126;5.596;2023-03-31T08:07:56;12.00;99.90
17565;DHT22;62994;52.126;5.596;2023-03-31T08:10:24;12.00;99.90
17565;DHT22;62994;52.126;5.596;2023-03-31T08:12:52;12.00;99.90
17565;DHT22;62994;52.126;5.596;2023-03-31T08:15:19;12.00;99.90
17565;DHT22;62994;52.126;5.596;2023-03-31T08:17:47;12.00;99.90
17565;DHT22;62994;52.126;5.596;2023-03-31T08:20:15;12.10;99.90
17565;DHT22;62994;52.126;5.596;2023-03-31T08:22:42;12.10;99.90
17565;DHT22;62994;52.126;5.596;2023-03-31T08:25:09;12.10;99.90
17565;DHT22;62994;52.126;5.596;2023-03-31T08:27:39;12.10;99.90
17565;DHT22;62994;52.126;5.596;2023-03-31T08:30:07;12.20;99.90
17565;DHT22;62994;52.126;5.596;2023-03-31T08:32:35;12.20;99.90
17565;DHT22;62994;52.126;5.596;2023-03-31T08:35:05;12.20;99.90
17565;DHT22;62994;52.126;5.596;2023-03-31T08:37:33;12.20;99.90
17565;DHT22;62994;52.126;5.596;2023-03-31T08:40:00;12.20;99.90
17565;DHT22;62994;52.126;5.596;2023-03-31T08:42:35;12.20;99.90
17565;DHT22;62994;52.126;5.596;2023-03-31T08:45:08;12.20;99.90
17565;DHT22;62994;52.126;5.596;2023-03-31T08:47:38;12.20;99.90
17565;DHT22;62994;52.126;5.596;2023-03-31T08:50:12;12.20;99.90
17565;DHT22;62994;52.126;5.596;2023-03-31T08:52:44;12.20;99.90
17565;DHT22;62994;52.126;5.596;2023-03-31T08:55:21;12.20;99.90
17565;DHT22;62994;52.126;5.596;2023-03-31T08:57:55;12.10;99.90
17565;DHT22;62994;52.126;5.596;2023-03-31T09:00:25;12.20;99.90
17565;DHT22;62994;52.126;5.596;2023-03-31T09:02:58;12.20;99.90
17565;DHT22;62994;52.126;5.596;2023-03-31T09:05:46;12.30;99.90
17565;DHT22;62994;52.126;5.596;2023-03-31T09:08:24;12.20;99.90
17565;DHT22;62994;52.126;5.596;2023-03-31T09:10:58;12.20;99.90
17565;DHT22;62994;52.126;5.596;2023-03-31T09:13:58;12.20;99.90
17565;DHT22;62994;52.126;5.596;2023-03-31T09:16:31;12.30;99.90
17565;DHT22;62994;52.126;5.596;2023-03-31T09:19:00;12.40;99.90
17565;DHT22;62994;52.126;5.596;2023-03-31T09:21:31;12.30;99.90
17565;DHT22;62994;52.126;5.596;2023-03-31T09:24:04;12.40;99.90
17565;DHT22;62994;52.126;5.596;2023-03-31T09:26:37;12.40;99.90
17565;DHT22;62994;52.126;5.596;2023-03-31T09:29:12;12.50;99.90
17565;DHT22;62994;52.126;5.596;2023-03-31T09:31:43;12.50;99.90
17565;DHT22;62994;52.126;5.596;2023-03-31T09:34:14;12.60;99.90
17565;DHT22;62994;52.126;5.596;2023-03-31T09:36:43;12.50;99.90
17565;DHT22;62994;52.126;5.596;2023-03-31T09:39:12;12.60;99.90
17565;DHT22;62994;52.126;5.596;2023-03-31T09:41:43;12.60;99.90
17565;DHT22;62994;52.126;5.596;2023-03-31T09:44:25;12.70;99.90
17565;DHT22;62994;52.126;5.596;2023-03-31T09:46:53;12.70;99.90
17565;DHT22;62994;52.126;5.596;2023-03-31T09:49:24;12.70;99.90
17565;DHT22;62994;52.126;5.596;2023-03-31T09:52:01;12.80;99.90
17565;DHT22;62994;52.126;5.596;2023-03-31T09:54:35;12.90;99.90
17565;DHT22;62994;52.126;5.596;2023-03-31T09:57:13;12.90;99.90
17565;DHT22;62994;52.126;5.596;2023-03-31T09:59:41;13.00;99.90
17565;DHT22;62994;52.126;5.596;2023-03-31T10:02:33;13.00;99.90
17565;DHT22;62994;52.126;5.596;2023-03-31T10:05:25;13.10;99.90
17565;DHT22;62994;52.126;5.596;2023-03-31T10:08:16;13.10;99.90
17565;DHT22;62994;52.126;5.596;2023-03-31T10:10:48;13.10;99.90
17565;DHT22;62994;52.126;5.596;2023-03-31T10:13:18;13.10;99.90
17565;DHT22;62994;52.126;5.596;2023-03-31T10:16:03;13.20;99.90
17565;DHT22;62994;52.126;5.596;2023-03-31T10:18:35;13.10;99.90
17565;DHT22;62994;52.126;5.596;2023-03-31T10:21:04;13.20;99.90
17565;DHT22;62994;52.126;5.596;2023-03-31T10:23:35;13.20;99.90
17565;DHT22;62994;52.126;5.596;2023-03-31T10:26:10;13.20;99.90
17565;DHT22;62994;52.126;5.596;2023-03-31T10:28:42;13.20;99.90
17565;DHT22;62994;52.126;5.596;2023-03-31T10:31:10;13.30;99.90
17565;DHT22;62994;52.126;5.596;2023-03-31T10:33:46;13.40;99.90
17565;DHT22;62994;52.126;5.596;2023-03-31T10:36:20;13.60;99.90
17565;DHT22;62994;52.126;5.596;2023-03-31T10:38:51;13.70;99.90
17565;DHT22;62994;52.126;5.596;2023-03-31T10:41:21;13.80;99.90
17565;DHT22;62994;52.126;5.596;2023-03-31T10:43:51;13.80;99.90
17565;DHT22;62994;52.126;5.596;2023-03-31T10:46:40;13.80;99.90
17565;DHT22;62994;52.126;5.596;2023-03-31T10:49:24;13.90;99.90
17565;DHT22;62994;52.126;5.596;2023-03-31T10:51:54;13.90;99.90
17565;DHT22;62994;52.126;5.596;2023-03-31T10:54:25;13.90;99.90
17565;DHT22;62994;52.126;5.596;2023-03-31T10:56:56;14.00;99.90
17565;DHT22;62994;52.126;5.596;2023-03-31T10:59:37;14.00;99.90
17565;DHT22;62994;52.126;5.596;2023-03-31T11:02:47;14.00;99.90
17565;DHT22;62994;52.126;5.596;2023-03-31T11:05:28;14.10;99.90
17565;DHT22;62994;52.126;5.596;2023-03-31T11:08:05;14.10;99.90
17565;DHT22;62994;52.126;5.596;2023-03-31T11:11:05;14.10;99.90
17565;DHT22;62994;52.126;5.596;2023-03-31T11:13:38;14.20;99.90
17565;DHT22;62994;52.126;5.596;2023-03-31T11:16:17;14.20;99.90
17565;DHT22;62994;52.126;5.596;2023-03-31T11:19:03;14.20;99.90
17565;DHT22;62994;52.126;5.596;2023-03-31T11:21:48;14.20;99.90
17565;DHT22;62994;52.126;5.596;2023-03-31T11:24:25;14.20;99.90
17565;DHT22;62994;52.126;5.596;2023-03-31T11:27:04;14.20;99.90
17565;DHT22;62994;52.126;5.596;2023-03-31T11:29:46;14.10;99.90
17565;DHT22;62994;52.126;5.596;2023-03-31T11:32:38;14.10;99.90
17565;DHT22;62994;52.126;5.596;2023-03-31T11:35:21;14.10;99.90
17565;DHT22;62994;52.126;5.596;2023-03-31T11:38:01;14.10;99.90
17565;DHT22;62994;52.126;5.596;2023-03-31T11:40:54;14.10;99.90
17565;DHT22;62994;52.126;5.596;2023-03-31T11:43:29;14.10;99.90
17565;DHT22;62994;52.126;5.596;2023-03-31T11:46:10;14.00;99.90
17565;DHT22;62994;52.126;5.596;2023-03-31T11:48:54;14.00;99.90
17565;DHT22;62994;52.126;5.596;2023-03-31T11:51:29;14.00;99.90
17565;DHT22;62994;52.126;5.596;2023-03-31T11:53:59;14.00;99.90
17565;DHT22;62994;52.126;5.596;2023-03-31T11:56:36;14.00;99.90
17565;DHT22;62994;52.126;5.596;2023-03-31T11:59:08;14.00;99.90
17565;DHT22;62994;52.126;5.596;2023-03-31T12:01:43;14.10;99.90
17565;DHT22;62994;52.126;5.596;2023-03-31T12:04:24;14.20;99.90
17565;DHT22;62994;52.126;5.596;2023-03-31T12:07:10;14.20;99.90
17565;DHT22;62994;52.126;5.596;2023-03-31T12:09:53;14.10;99.90
17565;DHT22;62994;52.126;5.596;2023-03-31T12:12:29;14.10;99.90
17565;DHT22;62994;52.126;5.596;2023-03-31T12:15:10;14.10;99.90
17565;DHT22;62994;52.126;5.596;2023-03-31T12:17:39;14.00;99.90
17565;DHT22;62994;52.126;5.596;2023-03-31T12:20:13;14.00;99.90
17565;DHT22;62994;52.126;5.596;2023-03-31T12:22:43;13.90;99.90
17565;DHT22;62994;52.126;5.596;2023-03-31T12:25:12;13.90;99.90
17565;DHT22;62994;52.126;5.596;2023-03-31T12:27:41;13.80;99.90
17565;DHT22;62994;52.126;5.596;2023-03-31T12:30:27;13.80;99.90
17565;DHT22;62994;52.126;5.596;2023-03-31T12:32:59;13.70;99.90
17565;DHT22;62994;52.126;5.596;2023-03-31T12:35:34;13.70;99.90
17565;DHT22;62994;52.126;5.596;2023-03-31T12:38:28;13.60;99.90
17565;DHT22;62994;52.126;5.596;2023-03-31T12:41:05;13.60;99.90
17565;DHT22;62994;52.126;5.596;2023-03-31T12:43:56;13.50;99.90
17565;DHT22;62994;52.126;5.596;2023-03-31T12:46:49;13.50;99.90
17565;DHT22;62994;52.126;5.596;2023-03-31T12:49:44;13.50;99.90
17565;DHT22;62994;52.126;5.596;2023-03-31T12:52:18;13.50;99.90
17565;DHT22;62994;52.126;5.596;2023-03-31T13:01:16;13.40;99.90
17565;DHT22;62994;52.126;5.596;2023-03-31T13:03:48;13.40;99.90
17565;DHT22;62994;52.126;5.596;2023-03-31T13:09:54;13.50;99.90
17565;DHT22;62994;52.126;5.596;2023-03-31T13:12:23;13.50;99.90
17565;DHT22;62994;52.126;5.596;2023-03-31T13:14:55;13.60;99.90
17565;DHT22;62994;52.126;5.596;2023-03-31T13:17:32;13.60;99.90
17565;DHT22;62994;52.126;5.596;2023-03-31T13:20:27;13.70;99.90
17565;DHT22;62994;52.126;5.596;2023-03-31T13:23:04;13.80;99.90
17565;DHT22;62994;52.126;5.596;2023-03-31T13:25:50;13.80;99.90
17565;DHT22;62994;52.126;5.596;2023-03-31T13:28:41;13.80;99.90
17565;DHT22;62994;52.126;5.596;2023-03-31T13:31:14;13.80;99.90
17565;DHT22;62994;52.126;5.596;2023-03-31T13:33:52;13.80;99.90
17565;DHT22;62994;52.126;5.596;2023-03-31T13:36:59;13.80;99.90
17565;DHT22;62994;52.126;5.596;2023-03-31T13:43:03;13.90;99.90
17565;DHT22;62994;52.126;5.596;2023-03-31T13:45:49;13.80;99.90
17565;DHT22;62994;52.126;5.596;2023-03-31T13:48:32;13.80;99.90
17565;DHT22;62994;52.126;5.596;2023-03-31T13:51:19;13.90;99.90
17565;DHT22;62994;52.126;5.596;2023-03-31T13:56:57;13.80;99.90
17565;DHT22;62994;52.126;5.596;2023-03-31T13:59:43;13.70;99.90
17565;DHT22;62994;52.126;5.596;2023-03-31T14:02:54;13.70;99.90
17565;DHT22;62994;52.126;5.596;2023-03-31T14:05:27;13.70;99.90
17565;DHT22;62994;52.126;5.596;2023-03-31T14:07:57;13.60;99.90
17565;DHT22;62994;52.126;5.596;2023-03-31T14:10:28;13.60;99.90
17565;DHT22;62994;52.126;5.596;2023-03-31T14:13:06;13.60;99.90
17565;DHT22;62994;52.126;5.596;2023-03-31T14:15:36;13.60;99.90
17565;DHT22;62994;52.126;5.596;2023-03-31T14:18:04;13.60;99.90
17565;DHT22;62994;52.126;5.596;2023-03-31T14:20:39;13.60;99.90
17565;DHT22;62994;52.126;5.596;2023-03-31T14:26:46;13.50;99.90
17565;DHT22;62994;52.126;5.596;2023-03-31T14:29:22;13.60;99.90
17565;DHT22;62994;52.126;5.596;2023-03-31T14:31:56;13.70;99.90
17565;DHT22;62994;52.126;5.596;2023-03-31T14:34:46;13.60;99.90
17565;DHT22;62994;52.126;5.596;2023-03-31T14:37:19;13.70;99.90
17565;DHT22;62994;52.126;5.596;2023-03-31T14:39:49;13.60;99.90
17565;DHT22;62994;52.126;5.596;2023-03-31T14:42:20;13.60;99.90
17565;DHT22;62994;52.126;5.596;2023-03-31T14:44:55;13.50;99.90
17565;DHT22;62994;52.126;5.596;2023-03-31T14:47:26;13.50;99.90
17565;DHT22;62994;52.126;5.596;2023-03-31T14:50:01;13.60;99.90
17565;DHT22;62994;52.126;5.596;2023-03-31T14:52:30;13.40;99.90
17565;DHT22;62994;52.126;5.596;2023-03-31T14:54:59;13.40;99.90
17565;DHT22;62994;52.126;5.596;2023-03-31T14:57:33;13.30;99.90
17565;DHT22;62994;52.126;5.596;2023-03-31T15:00:04;13.40;99.90
17565;DHT22;62994;52.126;5.596;2023-03-31T15:02:34;13.40;99.90
17565;DHT22;62994;52.126;5.596;2023-03-31T15:05:04;13.30;99.90
17565;DHT22;62994;52.126;5.596;2023-03-31T15:07:36;13.40;99.90
17565;DHT22;62994;52.126;5.596;2023-03-31T15:10:06;13.40;99.90
17565;DHT22;62994;52.126;5.596;2023-03-31T15:12:35;13.30;99.90
17565;DHT22;62994;52.126;5.596;2023-03-31T15:15:06;13.40;99.90
17565;DHT22;62994;52.126;5.596;2023-03-31T15:17:39;13.40;99.90
17565;DHT22;62994;52.126;5.596;2023-03-31T15:20:36;13.40;99.90
17565;DHT22;62994;52.126;5.596;2023-03-31T15:23:17;13.40;99.90
17565;DHT22;62994;52.126;5.596;2023-03-31T15:25:51;13.30;99.90
17565;DHT22;62994;52.126;5.596;2023-03-31T15:28:28;13.40;99.90
17565;DHT22;62994;52.126;5.596;2023-03-31T15:30:58;13.30;99.90
17565;DHT22;62994;52.126;5.596;2023-03-31T15:33:32;13.30;99.90
17565;DHT22;62994;52.126;5.596;2023-03-31T15:36:01;13.40;99.90
17565;DHT22;62994;52.126;5.596;2023-03-31T15:38:28;13.40;99.90
17565;DHT22;62994;52.126;5.596;2023-03-31T15:40:58;13.30;99.90
17565;DHT22;62994;52.126;5.596;2023-03-31T15:43:31;13.40;99.90
17565;DHT22;62994;52.126;5.596;2023-03-31T15:46:15;13.30;99.90
17565;DHT22;62994;52.126;5.596;2023-03-31T15:48:52;13.40;99.90
17565;DHT22;62994;52.126;5.596;2023-03-31T15:51:27;13.40;99.90
17565;DHT22;62994;52.126;5.596;2023-03-31T15:53:57;13.30;99.90
17565;DHT22;62994;52.126;5.596;2023-03-31T15:56:28;13.40;99.90
17565;DHT22;62994;52.126;5.596;2023-03-31T15:58:59;13.30;99.90
17565;DHT22;62994;52.126;5.596;2023-03-31T16:01:30;13.40;99.90
17565;DHT22;62994;52.126;5.596;2023-03-31T16:04:04;13.30;99.90
17565;DHT22;62994;52.126;5.596;2023-03-31T16:06:42;13.40;99.90
17565;DHT22;62994;52.126;5.596;2023-03-31T16:09:13;13.30;99.90
17565;DHT22;62994;52.126;5.596;2023-03-31T16:11:47;13.40;99.90
17565;DHT22;62994;52.126;5.596;2023-03-31T16:14:29;13.30;99.90
17565;DHT22;62994;52.126;5.596;2023-03-31T16:17:02;13.30;99.90
17565;DHT22;62994;52.126;5.596;2023-03-31T16:19:39;13.30;99.90
17565;DHT22;62994;52.126;5.596;2023-03-31T16:22:13;13.10;99.90
17565;DHT22;62994;52.126;5.596;2023-03-31T16:24:42;13.00;99.90
17565;DHT22;62994;52.126;5.596;2023-03-31T16:27:09;13.00;99.90
17565;DHT22;62994;52.126;5.596;2023-03-31T16:29:38;13.00;99.90
17565;DHT22;62994;52.126;5.596;2023-03-31T16:32:10;12.90;99.90
17565;DHT22;62994;52.126;5.596;2023-03-31T16:34:52;12.90;99.90